Shinkoumaru No 5 — JD3346 — position and weather

sailwx.info

Track history (hours):
 
Tides and Currents Weather Stations Pressure Air Temp Water Temp Dewpoint Dewpoint Depression Visibility Wind Speed Wind Dir Waves Ship Positions

Shinkoumaru No 5

Last reported at 2018-Jun-21 08:44 UTC. Time now 2018-Jun-23 11:49 UTC.
Position N 35°14' E 139°46'.

Length 75 m; draft 3.8 m.

Type: Cargo ship. MMSI: 431003394.

Date/timePositionNaut miles runAvg speedWind from/ knotsBaromVisibWave heightAir tempDewpointWater temp
2018-Jun-21 08:44N 35°14' E 139°46'311.7
2018-Jun-21 08:30N 35°16' E 139°46'612.1
2018-Jun-21 08:00N 35°22' E 139°42'611.6
2018-Jun-21 07:31N 35°27' E 139°47'11 0.3
2018-Jun-19 22:20N 35°37' E 139°48'411.0
2018-Jun-19 22:00N 35°35' E 139°51'1 2.3
2018-Jun-19 21:28N 35°34' E 139°52'511.4
2018-Jun-19 21:00N 35°29' E 139°51'611.9
2018-Jun-19 20:29N 35°24' E 139°46'611.9
2018-Jun-19 20:00N 35°18' E 139°44'611.5
2018-Jun-19 19:30N 35°13' E 139°47'24810.4
2018-Jun-18 19:37N 33°49' E 135°05'411.4
2018-Jun-18 19:18N 33°51' E 135°02'411.5
2018-Jun-18 18:59N 33°54' E 134°59'812.0
2018-Jun-18 18:18N 34°00' E 134°53'412.3
2018-Jun-18 18:00N 34°03' E 134°50'712.5
2018-Jun-18 17:29N 34°08' E 134°45'612.4
2018-Jun-18 17:00N 34°13' E 134°40'611.7
2018-Jun-18 16:30N 34°17' E 134°35'611.1
2018-Jun-18 16:00N 34°19' E 134°29'1111.4
2018-Jun-18 15:02N 34°24' E 134°17'  
Track history (hours):
 
Tides and Currents Weather Stations Pressure Air Temp Water Temp Dewpoint Dewpoint Depression Visibility Wind Speed Wind Dir Waves Ship Positions

Shinkoumaru No 5

Last reported at 2018-Jun-21 08:44 UTC. Time now 2018-Jun-23 11:49 UTC.
Position N 35°14' E 139°46'.

Length 75 m; draft 3.8 m.

Type: Cargo ship. MMSI: 431003394.

Date/timePositionNaut miles runAvg speedWind from/ knotsBaromVisibWave heightAir tempDewpointWater temp
2018-Jun-21 08:44N 35°14' E 139°46'311.7
2018-Jun-21 08:30N 35°16' E 139°46'612.1
2018-Jun-21 08:00N 35°22' E 139°42'611.6
2018-Jun-21 07:31N 35°27' E 139°47'11 0.3
2018-Jun-19 22:20N 35°37' E 139°48'411.0
2018-Jun-19 22:00N 35°35' E 139°51'1 2.3
2018-Jun-19 21:28N 35°34' E 139°52'511.4
2018-Jun-19 21:00N 35°29' E 139°51'611.9
2018-Jun-19 20:29N 35°24' E 139°46'611.9
2018-Jun-19 20:00N 35°18' E 139°44'611.5
2018-Jun-19 19:30N 35°13' E 139°47'24810.4
2018-Jun-18 19:37N 33°49' E 135°05'411.4
2018-Jun-18 19:18N 33°51' E 135°02'411.5
2018-Jun-18 18:59N 33°54' E 134°59'812.0
2018-Jun-18 18:18N 34°00' E 134°53'412.3
2018-Jun-18 18:00N 34°03' E 134°50'712.5
2018-Jun-18 17:29N 34°08' E 134°45'612.4
2018-Jun-18 17:00N 34°13' E 134°40'611.7
2018-Jun-18 16:30N 34°17' E 134°35'611.1
2018-Jun-18 16:00N 34°19' E 134°29'1111.4
2018-Jun-18 15:02N 34°24' E 134°17'  

Dump ship's entire track history